Tom, Oklahoma
Current Conditions -  °F | °C
As of 1:55 PM on Thursday 18 Dec 2014 (Local Time) from K4O4 Reporting Station
Overcast Overcast  
Wind Chill: 45°   Ceiling: 400
Heat Index: 45°   Visibility: 4mi
Dew Point: 43°   Wind: 3mph
Humidity: 93%   Direction: 50°NE
Pressure: 30.14"   Gusts: NA
Location:  33.7909°N, 94.5749°W
Report Text: K4O4 181955Z AUTO 05003KT 4SM OVC004 07/06 A3014 RMK AO2
Loading
Personal Weather Stations






























Interactive Weather Map New forecast layout! Learn more

10-Day Weather Forecast

Advertisements
Track Severe Weather on mobile